Time;durP1;ratioP1;P1;durP2;ratioP2;P2;SDS_P1;SDS_P2;PMS_P1;PMS_P2;Temp;Humidity;BMP_temperature;BMP_pressure;BME280_temperature;BME280_humidity;BME280_pressure;Samples;Min_cycle;Max_cycle;Signal;HPM_P1;HPM_P2
2022/11/06 00:06:46;;;;;;;8.93;2.70;;;;;9.30;100949.00;;;;10448316;28;20214;-80
2022/11/06 00:10:21;;;;;;;6.30;2.30;;;;;9.40;100950.00;;;;10405460;28;20596;-79
2022/11/06 00:15:23;;;;;;;6.67;2.03;;;;;9.50;100935.00;;;;10405042;28;20183;-79
2022/11/06 00:20:25;;;;;;;7.33;2.23;;;;;9.60;100935.00;;;;10421616;28;20641;-80
2022/11/06 00:25:27;;;;;;;6.50;1.90;;;;;9.70;100932.00;;;;10416561;28;20209;-79
2022/11/06 00:30:29;;;;;;;5.87;2.07;;;;;9.80;100921.00;;;;10445123;28;20218;-80
2022/11/06 00:35:30;;;;;;;5.23;2.10;;;;;9.90;100924.00;;;;10429097;28;20205;-80
2022/11/06 00:40:33;;;;;;;3.03;2.20;;;;;10.00;100910.00;;;;10428944;28;20181;-79
2022/11/06 00:45:34;;;;;;;7.10;2.13;;;;;10.00;100926.00;;;;10445409;28;20189;-80
2022/11/06 00:50:36;;;;;;;6.80;2.53;;;;;10.10;100927.00;;;;10428942;28;20210;-80
2022/11/06 00:55:38;;;;;;;5.70;2.03;;;;;10.10;100917.00;;;;10428806;28;20195;-79
2022/11/06 01:00:40;;;;;;;3.87;2.10;;;;;10.10;100908.00;;;;10444550;28;20483;-79
2022/11/06 01:05:42;;;;;;;10.37;2.47;;;;;10.20;100918.00;;;;10443868;28;20225;-80
2022/11/06 01:10:44;;;;;;;8.73;2.77;;;;;10.20;100914.00;;;;10444417;28;20588;-80
2022/11/06 01:15:45;;;;;;;6.13;2.43;;;;;10.20;100924.00;;;;10444720;28;20778;-79
2022/11/06 01:20:48;;;;;;;4.20;1.93;;;;;10.30;100921.00;;;;10444467;28;20602;-80
2022/11/06 01:26:01;;;;;;;7.50;2.30;;;;;10.30;100898.00;;;;10439951;28;20220;-80
2022/11/06 01:31:07;;;;;;;5.77;2.10;;;;;10.30;100904.00;;;;10422169;28;20266;-80
2022/11/06 01:36:15;;;;;;;4.30;2.00;;;;;10.30;100906.00;;;;10421270;28;20190;-79
2022/11/06 01:41:35;;;;;;;7.87;2.03;;;;;10.20;100903.00;;;;10388950;28;20637;-80
2022/11/06 01:46:37;;;;;;;6.17;2.63;;;;;10.20;100907.00;;;;10421242;28;20692;-80
2022/11/06 01:51:46;;;;;;;8.60;2.13;;;;;10.20;100892.00;;;;10404341;28;20206;-80
2022/11/06 01:56:52;;;;;;;4.67;1.87;;;;;10.20;100884.00;;;;10412533;28;20194;-80
2022/11/06 02:01:54;;;;;;;4.90;1.90;;;;;10.20;100886.00;;;;10418546;28;20198;-80
2022/11/06 02:06:58;;;;;;;7.63;1.70;;;;;10.20;100868.00;;;;10426572;28;20221;-80
2022/11/06 02:12:26;;;;;;;5.67;1.80;;;;;10.10;100867.00;;;;10443203;28;20206;-80
2022/11/06 02:17:50;;;;;;;7.80;2.30;;;;;10.00;100861.00;;;;10437838;28;20194;-79
2022/11/06 02:23:29;;;;;;;5.40;2.23;;;;;9.90;100879.00;;;;10451135;28;20593;-80
2022/11/06 02:28:35;;;;;;;9.23;3.10;;;;;10.00;100881.00;;;;10466759;28;20209;-80
2022/11/06 02:33:46;;;;;;;4.97;1.60;;;;;10.10;100869.00;;;;10449908;28;20691;-80
2022/11/06 02:38:57;;;;;;;6.57;2.40;;;;;10.10;100861.00;;;;10449954;28;20213;-79
2022/11/06 02:44:01;;;;;;;4.63;1.80;;;;;10.00;100850.00;;;;10433694;28;20728;-80
2022/11/06 02:49:07;;;;;;;2.43;1.60;;;;;9.90;100846.00;;;;10466535;28;20205;-80
2022/11/06 02:54:10;;;;;;;5.60;2.30;;;;;10.00;100835.00;;;;10433595;28;20198;-80
2022/11/06 02:59:18;;;;;;;4.97;1.80;;;;;10.00;100817.00;;;;10433490;28;20254;-80
2022/11/06 03:04:26;;;;;;;5.13;1.60;;;;;10.10;100816.00;;;;10449107;28;20227;-80
2022/11/06 03:09:30;;;;;;;2.50;1.43;;;;;10.10;100817.00;;;;10423687;28;20691;-80
2022/11/06 03:14:45;;;;;;;8.67;2.70;;;;;10.20;100806.00;;;;10428076;28;20611;-80
2022/11/06 03:19:58;;;;;;;5.03;1.97;;;;;10.30;100792.00;;;;10432331;28;20193;-79
2022/11/06 03:25:21;;;;;;;4.57;1.27;;;;;10.30;100787.00;;;;10432535;28;20544;-79
2022/11/06 03:30:25;;;;;;;5.57;1.30;;;;;10.20;100793.00;;;;10447755;28;20205;-79
2022/11/06 03:35:43;;;;;;;7.70;1.50;;;;;10.10;100785.00;;;;10448181;28;20197;-80
2022/11/06 03:40:59;;;;;;;4.43;1.80;;;;;10.10;100786.00;;;;10431649;28;20778;-80
2022/11/06 03:46:06;;;;;;;4.47;1.70;;;;;10.10;100757.00;;;;10480893;28;20185;-79
2022/11/06 03:51:23;;;;;;;6.20;1.70;;;;;10.00;100744.00;;;;10463360;28;20197;-80
2022/11/06 03:56:43;;;;;;;5.67;1.60;;;;;9.90;100750.00;;;;10413708;28;20197;-80
2022/11/06 04:01:47;;;;;;;4.43;2.13;;;;;9.90;100746.00;;;;10406217;28;20190;-79
2022/11/06 04:06:55;;;;;;;3.00;1.93;;;;;9.80;100733.00;;;;10405667;28;20261;-79
2022/11/06 04:17:23;;;;;;;4.00;1.57;;;;;9.70;100743.00;;;;10436647;28;20190;-79
2022/11/06 04:22:46;;;;;;;3.70;1.87;;;;;9.70;100733.00;;;;10404860;28;20580;-80
2022/11/06 04:28:02;;;;;;;5.57;1.93;;;;;9.70;100725.00;;;;10388565;28;20259;-79
2022/11/06 04:33:06;;;;;;;4.93;1.63;;;;;9.60;100724.00;;;;10404586;28;20189;-79
2022/11/06 04:38:18;;;;;;;6.47;1.80;;;;;9.60;100726.00;;;;10420880;28;20190;-79
2022/11/06 04:43:29;;;;;;;6.53;2.10;;;;;9.50;100721.00;;;;10404071;28;20608;-79
2022/11/06 04:48:31;;;;;;;7.63;1.80;;;;;9.40;100715.00;;;;10424754;28;20312;-79
2022/11/06 04:53:34;;;;;;;4.73;2.03;;;;;9.40;100708.00;;;;10428334;28;20292;-79
2022/11/06 04:58:36;;;;;;;5.33;1.90;;;;;9.40;100707.00;;;;10428123;28;20224;-80
2022/11/06 05:03:37;;;;;;;6.93;1.80;;;;;9.40;100689.00;;;;10424192;28;20232;-79
2022/11/06 05:08:40;;;;;;;4.53;1.90;;;;;9.40;100696.00;;;;10403098;28;20203;-79
2022/11/06 05:13:41;;;;;;;6.37;1.83;;;;;9.40;100697.00;;;;10450936;28;20193;-79
2022/11/06 05:18:43;;;;;;;2.93;2.07;;;;;9.40;100694.00;;;;10419342;28;20226;-79
2022/11/06 05:23:45;;;;;;;3.83;2.80;;;;;9.40;100695.00;;;;10435555;28;20252;-79
2022/11/06 05:28:47;;;;;;;5.53;2.57;;;;;9.50;100687.00;;;;10418911;28;20206;-79
2022/11/06 05:33:49;;;;;;;6.20;2.07;;;;;9.60;100672.00;;;;10386248;28;20198;-79
2022/11/06 05:38:51;;;;;;;4.73;2.30;;;;;9.70;100681.00;;;;10402828;28;20236;-79
2022/11/06 05:43:53;;;;;;;9.47;2.33;;;;;9.90;100671.00;;;;10386193;28;20209;-79
2022/11/06 05:48:55;;;;;;;3.23;1.80;;;;;10.00;100656.00;;;;10418821;28;20203;-79
2022/11/06 05:53:56;;;;;;;7.47;2.00;;;;;10.00;100649.00;;;;10437190;28;20198;-79
2022/11/06 05:58:58;;;;;;;4.90;1.60;;;;;10.10;100643.00;;;;10452140;28;20174;-79
2022/11/06 06:04:00;;;;;;;5.47;3.00;;;;;10.10;100642.00;;;;10451413;28;20671;-79
2022/11/06 06:09:02;;;;;;;5.87;2.03;;;;;10.20;100630.00;;;;10451126;28;20214;-79
2022/11/06 06:14:04;;;;;;;4.87;2.43;;;;;10.20;100644.00;;;;10451692;28;20194;-79
2022/11/06 06:19:06;;;;;;;7.80;2.20;;;;;10.30;100644.00;;;;10434895;28;21014;-79
2022/11/06 06:24:08;;;;;;;3.83;2.00;;;;;10.30;100645.00;;;;10451074;28;20244;-80
2022/11/06 06:29:10;;;;;;;6.27;1.97;;;;;10.40;100639.00;;;;10434252;28;20744;-80
2022/11/06 06:34:11;;;;;;;3.60;2.13;;;;;10.40;100648.00;;;;10450949;28;20667;-79
2022/11/06 06:39:13;;;;;;;6.03;2.87;;;;;10.40;100625.00;;;;10466727;28;20194;-79
2022/11/06 06:44:15;;;;;;;5.93;2.00;;;;;10.50;100621.00;;;;10465983;28;20201;-79
2022/11/06 06:49:17;;;;;;;5.87;1.90;;;;;10.60;100634.00;;;;10449539;28;20267;-79
2022/11/06 06:54:19;;;;;;;3.73;1.67;;;;;10.70;100636.00;;;;10465988;28;20266;-79
2022/11/06 06:59:21;;;;;;;5.33;1.40;;;;;10.80;100635.00;;;;10449292;28;20190;-79
2022/11/06 07:04:23;;;;;;;4.93;1.70;;;;;10.80;100625.00;;;;10437251;28;20940;-79
2022/11/06 07:09:28;;;;;;;4.47;1.50;;;;;10.90;100617.00;;;;10415450;28;20210;-79
2022/11/06 07:14:30;;;;;;;5.53;2.13;;;;;10.90;100621.00;;;;10410804;28;20204;-79
2022/11/06 07:19:32;;;;;;;5.33;1.83;;;;;11.00;100607.00;;;;10465432;28;20608;-80
2022/11/06 07:24:34;;;;;;;2.60;1.20;;;;;11.10;100610.00;;;;10464735;28;20209;-79
2022/11/06 07:29:36;;;;;;;2.00;1.40;;;;;11.20;100611.00;;;;10431494;28;20267;-79
2022/11/06 07:34:38;;;;;;;2.57;1.37;;;;;11.30;100606.00;;;;10419367;28;20220;-79
2022/11/06 07:39:40;;;;;;;6.07;1.40;;;;;11.50;100599.00;;;;10436997;28;20193;-79
2022/11/06 07:44:42;;;;;;;6.80;1.80;;;;;11.60;100603.00;;;;10464620;28;20224;-79
2022/11/06 07:49:44;;;;;;;4.27;1.70;;;;;11.70;100604.00;;;;10447592;28;20224;-79
2022/11/06 07:54:51;;;;;;;3.70;1.23;;;;;11.90;100593.00;;;;10446989;28;20284;-79
2022/11/06 07:59:53;;;;;;;3.27;1.70;;;;;12.10;100597.00;;;;10446396;28;20189;-80
2022/11/06 08:04:55;;;;;;;3.07;1.13;;;;;12.20;100582.00;;;;10448726;28;20229;-79
2022/11/06 08:09:57;;;;;;;5.83;1.43;;;;;12.30;100578.00;;;;10421832;28;20672;-79
2022/11/06 08:14:59;;;;;;;4.17;1.40;;;;;12.30;100580.00;;;;10437777;28;20593;-79
2022/11/06 08:20:01;;;;;;;2.40;1.30;;;;;12.50;100573.00;;;;10389390;28;20190;-79
2022/11/06 08:25:03;;;;;;;5.77;1.67;;;;;12.60;100574.00;;;;10404988;28;20206;-79
2022/11/06 08:30:05;;;;;;;7.17;1.60;;;;;12.80;100572.00;;;;10404612;28;20290;-79
2022/11/06 08:35:08;;;;;;;7.37;1.53;;;;;12.90;100565.00;;;;10437673;28;20193;-80
2022/11/06 08:40:10;;;;;;;5.83;1.40;;;;;12.80;100566.00;;;;10445592;28;20874;-80
2022/11/06 08:45:12;;;;;;;5.63;1.90;;;;;12.80;100557.00;;;;10445740;28;20193;-79
2022/11/06 08:50:14;;;;;;;4.07;1.53;;;;;12.80;100546.00;;;;10428994;28;20302;-79
2022/11/06 08:55:16;;;;;;;5.47;1.60;;;;;13.30;100533.00;;;;10422952;28;20201;-79
2022/11/06 09:00:18;;;;;;;3.13;1.23;;;;;13.40;100532.00;;;;10403722;28;20193;-79
2022/11/06 09:05:20;;;;;;;5.60;1.37;;;;;13.30;100539.00;;;;10455051;28;20312;-79
2022/11/06 09:10:23;;;;;;;4.90;1.60;;;;;13.30;100509.00;;;;10428562;28;20213;-79
2022/11/06 09:15:25;;;;;;;4.80;1.60;;;;;13.20;100506.00;;;;10433634;28;20195;-79
2022/11/06 09:20:27;;;;;;;4.60;1.40;;;;;13.20;100502.00;;;;10437265;28;20224;-79
2022/11/06 09:25:30;;;;;;;4.07;1.50;;;;;13.40;100508.00;;;;10419358;28;20279;-79
2022/11/06 09:30:32;;;;;;;2.97;1.27;;;;;13.40;100507.00;;;;10413257;28;20968;-80
2022/11/06 09:35:35;;;;;;;4.00;1.57;;;;;13.50;100494.00;;;;10445747;28;20211;-80
2022/11/06 09:40:47;;;;;;;5.03;2.20;;;;;13.60;100492.00;;;;10444833;28;20659;-79
2022/11/06 09:45:50;;;;;;;3.83;1.43;;;;;13.80;100477.00;;;;10444718;28;20255;-79
2022/11/06 09:51:01;;;;;;;11.10;1.77;;;;;14.20;100473.00;;;;10444429;28;20254;-80
2022/11/06 09:56:04;;;;;;;10.27;2.50;;;;;14.40;100459.00;;;;10444842;28;20186;-80
2022/11/06 10:01:14;;;;;;;5.30;1.70;;;;;14.20;100449.00;;;;10445139;28;20197;-79
2022/11/06 10:06:26;;;;;;;7.20;2.10;;;;;14.20;100437.00;;;;10460982;28;20213;-80
2022/11/06 10:11:55;;;;;;;5.33;1.80;;;;;13.90;100437.00;;;;10444348;28;20205;-80
2022/11/06 10:17:16;;;;;;;2.17;1.57;;;;;13.70;100432.00;;;;10445150;28;20177;-79
2022/11/06 10:22:27;;;;;;;4.17;1.60;;;;;13.70;100424.00;;;;10427543;28;20202;-80
2022/11/06 10:27:41;;;;;;;8.60;1.73;;;;;13.30;100435.00;;;;10461073;28;20644;-79
2022/11/06 10:33:16;;;;;;;4.93;1.60;;;;;13.10;100429.00;;;;10443644;28;20230;-79
2022/11/06 10:38:28;;;;;;;7.07;1.80;;;;;13.00;100412.00;;;;10446902;28;20778;-79
2022/11/06 10:43:59;;;;;;;5.33;2.00;;;;;13.00;100408.00;;;;10450635;28;20568;-78
2022/11/06 10:49:10;;;;;;;3.47;1.57;;;;;13.00;100399.00;;;;10461124;28;20217;-79
2022/11/06 10:54:27;;;;;;;10.13;2.23;;;;;12.90;100399.00;;;;10437048;28;20196;-79
2022/11/06 10:59:29;;;;;;;5.00;2.23;;;;;13.20;100389.00;;;;10409823;28;20190;-80
2022/11/06 11:04:31;;;;;;;3.90;1.77;;;;;13.30;100376.00;;;;10422641;28;20227;-79
2022/11/06 11:09:33;;;;;;;8.50;1.83;;;;;13.40;100371.00;;;;10466057;28;20680;-80
2022/11/06 11:14:35;;;;;;;6.57;1.93;;;;;13.60;100381.00;;;;10449085;28;20185;-79
2022/11/06 11:19:40;;;;;;;8.90;1.90;;;;;13.60;100366.00;;;;10465713;28;20193;-80
2022/11/06 11:25:23;;;;;;;4.80;1.80;;;;;13.70;100353.00;;;;10449315;28;20300;-80
2022/11/06 11:30:25;;;;;;;4.20;1.53;;;;;13.50;100338.00;;;;10458139;28;20221;-79
2022/11/06 11:35:29;;;;;;;6.83;1.60;;;;;13.20;100330.00;;;;10414319;28;20198;-79
2022/11/06 11:40:35;;;;;;;8.50;1.40;;;;;13.20;100335.00;;;;10392329;28;20191;-79
2022/11/06 11:45:37;;;;;;;3.53;1.30;;;;;13.10;100324.00;;;;10414686;28;20656;-79
2022/11/06 11:50:40;;;;;;;5.77;1.33;;;;;12.90;100310.00;;;;10410060;28;20245;-79
2022/11/06 11:55:51;;;;;;;5.23;2.00;;;;;12.70;100294.00;;;;10408573;28;20204;-79
2022/11/06 12:00:56;;;;;;;3.10;1.40;;;;;12.50;100284.00;;;;10425524;28;20186;-79
2022/11/06 12:06:11;;;;;;;5.30;1.63;;;;;12.40;100297.00;;;;10466590;28;20222;-79
2022/11/06 12:11:19;;;;;;;4.40;1.40;;;;;12.20;100286.00;;;;10465228;28;20217;-80
2022/11/06 12:16:21;;;;;;;2.20;1.30;;;;;12.00;100290.00;;;;10450462;28;20200;-79
2022/11/06 12:21:28;;;;;;;3.57;1.40;;;;;11.80;100299.00;;;;10448206;28;20205;-78
2022/11/06 12:26:44;;;;;;;4.63;1.60;;;;;11.50;100281.00;;;;10430311;28;20194;-79
2022/11/06 12:32:01;;;;;;;5.27;1.93;;;;;11.20;100289.00;;;;10462427;28;20220;-76
2022/11/06 12:37:46;;;;;;;3.87;1.70;;;;;10.90;100273.00;;;;10413937;28;20194;-77
2022/11/06 12:43:16;;;;;;;7.57;1.73;;;;;10.70;100264.00;;;;10421540;28;20192;-77
2022/11/06 12:48:31;;;;;;;5.53;1.73;;;;;10.60;100257.00;;;;10436980;28;20190;-77
2022/11/06 12:53:54;;;;;;;6.47;1.93;;;;;10.50;100256.00;;;;10411805;28;20202;-77
2022/11/06 12:59:40;;;;;;;4.53;1.70;;;;;10.40;100253.00;;;;10429398;28;20267;-77
2022/11/06 13:04:54;;;;;;;6.93;1.93;;;;;10.40;100262.00;;;;10478799;28;20225;-78
2022/11/06 13:10:28;;;;;;;5.20;1.93;;;;;10.30;100262.00;;;;10462151;28;20206;-77
2022/11/06 13:15:50;;;;;;;5.53;1.67;;;;;10.20;100257.00;;;;10466556;28;20643;-78
2022/11/06 13:20:59;;;;;;;6.80;1.80;;;;;10.10;100254.00;;;;10445269;28;20195;-77
2022/11/06 13:26:11;;;;;;;5.97;1.70;;;;;9.90;100273.00;;;;10461160;28;20190;-77
2022/11/06 13:31:17;;;;;;;3.50;1.60;;;;;9.70;100270.00;;;;10460657;28;20216;-78
2022/11/06 13:36:19;;;;;;;5.03;1.53;;;;;9.50;100261.00;;;;10460835;28;20205;-77
2022/11/06 13:41:26;;;;;;;6.90;1.70;;;;;9.40;100241.00;;;;10461006;28;20670;-77
2022/11/06 13:46:38;;;;;;;2.07;1.30;;;;;9.30;100225.00;;;;10444081;28;20243;-78
2022/11/06 13:51:53;;;;;;;4.07;1.50;;;;;9.20;100228.00;;;;10427798;28;20219;-77
2022/11/06 13:57:01;;;;;;;3.90;1.47;;;;;9.10;100202.00;;;;10444131;28;20203;-78
2022/11/06 14:02:19;;;;;;;4.37;1.60;;;;;9.10;100199.00;;;;10476975;28;20187;-77
2022/11/06 14:07:27;;;;;;;3.33;1.47;;;;;9.10;100200.00;;;;10424909;28;20683;-78
2022/11/06 14:12:29;;;;;;;4.97;1.67;;;;;9.00;100187.00;;;;10441683;28;20209;-78
2022/11/06 14:17:32;;;;;;;3.30;1.70;;;;;9.00;100159.00;;;;10436178;28;20200;-78
2022/11/06 14:22:36;;;;;;;2.63;1.40;;;;;9.00;100155.00;;;;10435232;28;20663;-78
2022/11/06 14:27:38;;;;;;;7.97;2.07;;;;;8.90;100149.00;;;;10487133;28;20660;-78
2022/11/06 14:32:43;;;;;;;3.80;1.67;;;;;8.80;100128.00;;;;10450383;28;20556;-78
2022/11/06 14:37:46;;;;;;;3.67;1.80;;;;;8.70;100132.00;;;;10450679;28;20262;-78
2022/11/06 14:42:48;;;;;;;6.37;1.83;;;;;8.70;100126.00;;;;10467396;28;20177;-78
2022/11/06 14:47:55;;;;;;;2.77;1.57;;;;;8.60;100118.00;;;;10450648;28;20202;-78
2022/11/06 14:53:05;;;;;;;2.87;1.77;;;;;8.50;100125.00;;;;10424988;28;20242;-78
2022/11/06 14:58:21;;;;;;;5.43;1.80;;;;;8.60;100126.00;;;;10445797;28;20276;-78
2022/11/06 15:03:29;;;;;;;3.30;1.60;;;;;8.60;100116.00;;;;10432980;28;20221;-77
2022/11/06 15:08:47;;;;;;;1.90;1.50;;;;;8.50;100107.00;;;;10449446;28;20200;-78
2022/11/06 15:13:49;;;;;;;3.97;1.63;;;;;8.30;100090.00;;;;10449254;28;20208;-78
2022/11/06 15:18:51;;;;;;;2.37;1.40;;;;;8.10;100085.00;;;;10427173;28;20669;-77
2022/11/06 15:24:11;;;;;;;2.73;1.40;;;;;8.10;100078.00;;;;10423687;28;20202;-77
2022/11/06 15:29:16;;;;;;;3.30;1.80;;;;;8.10;100075.00;;;;10443712;28;20201;-77
2022/11/06 15:34:40;;;;;;;2.50;1.50;;;;;8.00;100054.00;;;;10472091;28;20194;-77
2022/11/06 15:39:53;;;;;;;7.00;1.93;;;;;8.00;100043.00;;;;10415428;28;20189;-77
2022/11/06 15:45:11;;;;;;;3.67;1.97;;;;;7.90;100031.00;;;;10481091;28;20203;-77
2022/11/06 15:50:25;;;;;;;4.93;1.37;;;;;7.90;100015.00;;;;10449253;28;20206;-78
2022/11/06 15:55:31;;;;;;;2.80;1.53;;;;;8.00;100028.00;;;;10481140;28;20189;-77
2022/11/06 16:00:37;;;;;;;4.03;1.97;;;;;8.10;100019.00;;;;10499103;28;20663;-77
2022/11/06 16:05:39;;;;;;;4.77;1.87;;;;;8.00;100014.00;;;;10461277;28;20217;-77
2022/11/06 16:10:43;;;;;;;4.97;1.80;;;;;7.90;99999.00;;;;10426313;28;20202;-78
2022/11/06 16:15:49;;;;;;;3.83;1.87;;;;;7.90;100006.00;;;;10423958;28;20198;-77
2022/11/06 16:20:54;;;;;;;5.93;2.00;;;;;7.80;100036.00;;;;10480288;28;20194;-78
2022/11/06 16:26:02;;;;;;;3.57;2.00;;;;;7.90;100026.00;;;;10430471;28;20198;-77
2022/11/06 16:31:16;;;;;;;4.43;2.07;;;;;7.90;100014.00;;;;10420255;28;20264;-77
2022/11/06 16:36:18;;;;;;;2.07;1.67;;;;;7.90;100032.00;;;;10435942;28;20664;-77
2022/11/06 16:41:52;;;;;;;6.47;2.30;;;;;7.90;100033.00;;;;10422500;28;20186;-78
2022/11/06 16:47:03;;;;;;;5.43;1.60;;;;;8.00;100031.00;;;;10445059;28;20621;-78
2022/11/06 16:52:24;;;;;;;3.50;1.90;;;;;8.00;100040.00;;;;10438925;28;20266;-77
2022/11/06 16:57:49;;;;;;;5.40;1.97;;;;;8.10;100037.00;;;;10429776;28;20217;-78
2022/11/06 17:03:18;;;;;;;2.67;1.97;;;;;8.20;100043.00;;;;10461990;28;20205;-77
2022/11/06 17:08:24;;;;;;;4.83;2.80;;;;;8.30;100037.00;;;;10443559;28;20179;-77
2022/11/06 17:13:30;;;;;;;5.43;2.07;;;;;8.30;100043.00;;;;10444626;28;20283;-78
2022/11/06 17:18:34;;;;;;;3.00;2.00;;;;;8.40;100056.00;;;;10443728;28;20194;-78
2022/11/06 17:23:37;;;;;;;3.73;2.60;;;;;8.50;100062.00;;;;10421016;28;20202;-79
2022/11/06 17:28:39;;;;;;;10.67;3.03;;;;;8.60;100070.00;;;;10443731;28;20186;-79
2022/11/06 17:33:42;;;;;;;2.63;2.43;;;;;8.60;100068.00;;;;10428078;28;20297;-78
2022/11/06 17:38:44;;;;;;;4.37;2.23;;;;;8.70;100062.00;;;;10396730;28;20820;-78
2022/11/06 17:43:46;;;;;;;5.00;2.37;;;;;8.80;100069.00;;;;10423920;28;20194;-79
2022/11/06 17:48:49;;;;;;;6.13;2.53;;;;;8.80;100053.00;;;;10446721;28;20284;-78
2022/11/06 17:53:50;;;;;;;5.17;2.60;;;;;8.80;100044.00;;;;10436244;28;20200;-78
2022/11/06 17:58:55;;;;;;;2.80;2.17;;;;;8.80;100048.00;;;;10474447;28;20195;-78
2022/11/06 18:03:57;;;;;;;4.70;2.67;;;;;8.80;100067.00;;;;10422882;28;20218;-78
2022/11/06 18:09:02;;;;;;;9.57;2.83;;;;;8.90;100059.00;;;;10401611;28;20213;-77
2022/11/06 18:14:04;;;;;;;6.57;3.70;;;;;9.00;100079.00;;;;10412825;28;20328;-78
2022/11/06 18:19:08;;;;;;;3.77;2.80;;;;;9.00;100082.00;;;;10459654;28;20691;-78
2022/11/06 18:24:10;;;;;;;6.80;2.80;;;;;9.10;100065.00;;;;10443461;28;20215;-78
2022/11/06 18:29:12;;;;;;;6.23;3.10;;;;;9.20;100087.00;;;;10437530;28;20191;-78
2022/11/06 18:34:15;;;;;;;8.10;3.50;;;;;9.30;100093.00;;;;10442008;28;20680;-78
2022/11/06 18:39:21;;;;;;;6.10;3.13;;;;;9.40;100100.00;;;;10417457;28;20245;-77
2022/11/06 18:44:23;;;;;;;5.87;3.73;;;;;9.40;100083.00;;;;10416466;28;20190;-77
2022/11/06 18:49:25;;;;;;;4.43;3.03;;;;;9.50;100066.00;;;;10457955;28;20201;-77
2022/11/06 18:54:28;;;;;;;6.20;3.20;;;;;9.50;100069.00;;;;10452461;28;20679;-78
2022/11/06 18:59:30;;;;;;;8.30;3.63;;;;;9.50;100075.00;;;;10460226;28;20198;-78
2022/11/06 19:04:32;;;;;;;8.60;4.00;;;;;9.50;100093.00;;;;10466295;28;20571;-79
2022/11/06 19:09:34;;;;;;;7.07;3.60;;;;;9.60;100096.00;;;;10467113;28;20194;-79
2022/11/06 19:14:36;;;;;;;6.77;3.50;;;;;9.70;100093.00;;;;10446223;28;20202;-78
2022/11/06 19:19:38;;;;;;;7.53;3.60;;;;;9.80;100107.00;;;;10444392;28;20252;-79
2022/11/06 19:24:40;;;;;;;4.10;3.10;;;;;9.80;100118.00;;;;10466816;28;20209;-78
2022/11/06 19:29:42;;;;;;;7.30;3.13;;;;;9.90;100109.00;;;;10458122;28;20194;-79
2022/11/06 19:34:44;;;;;;;7.60;3.30;;;;;9.90;100111.00;;;;10411631;28;20204;-79
2022/11/06 19:39:45;;;;;;;6.17;3.27;;;;;9.80;100119.00;;;;10434938;28;20199;-79
2022/11/06 19:44:47;;;;;;;6.03;3.37;;;;;9.80;100128.00;;;;10454588;28;20668;-78
2022/11/06 19:49:49;;;;;;;6.83;3.70;;;;;9.80;100142.00;;;;10445186;28;20189;-79
2022/11/06 19:54:51;;;;;;;8.27;4.03;;;;;9.80;100142.00;;;;10428471;28;20186;-79
2022/11/06 20:00:14;;;;;;;8.43;4.20;;;;;9.90;100153.00;;;;10410036;28;20281;-78
2022/11/06 20:05:16;;;;;;;8.87;3.20;;;;;9.90;100150.00;;;;10462282;28;20794;-78
2022/11/06 20:10:17;;;;;;;10.50;4.03;;;;;10.00;100152.00;;;;10445148;28;20198;-78
2022/11/06 20:15:20;;;;;;;6.20;3.90;;;;;10.10;100165.00;;;;10462758;28;20193;-78
2022/11/06 20:20:25;;;;;;;5.23;3.70;;;;;10.20;100183.00;;;;10461930;28;20688;-79
2022/11/06 20:25:29;;;;;;;10.83;3.47;;;;;10.30;100171.00;;;;10428336;28;20197;-79
2022/11/06 20:30:31;;;;;;;5.23;3.13;;;;;10.40;100193.00;;;;10460896;28;20206;-78
2022/11/06 20:35:35;;;;;;;5.00;3.57;;;;;10.40;100193.00;;;;10403931;28;20202;-78
2022/11/06 20:40:37;;;;;;;8.77;4.27;;;;;10.50;100185.00;;;;10409391;28;20194;-78
2022/11/06 20:45:39;;;;;;;8.30;3.83;;;;;10.50;100194.00;;;;10444152;28;20190;-78
2022/11/06 20:50:41;;;;;;;5.67;3.43;;;;;10.60;100189.00;;;;10443050;28;20268;-77
2022/11/06 20:55:45;;;;;;;5.37;2.77;;;;;10.60;100202.00;;;;10456743;28;20665;-78
2022/11/06 21:00:47;;;;;;;6.40;3.70;;;;;10.60;100206.00;;;;10443332;28;20193;-78
2022/11/06 21:05:48;;;;;;;4.90;2.60;;;;;10.70;100206.00;;;;10437258;28;20218;-78
2022/11/06 21:11:03;;;;;;;5.87;3.10;;;;;10.70;100204.00;;;;10422745;28;20201;-78
2022/11/06 21:16:11;;;;;;;7.80;2.87;;;;;10.70;100210.00;;;;10434550;28;20219;-79
2022/11/06 21:21:16;;;;;;;5.50;2.70;;;;;10.70;100219.00;;;;10430627;28;20194;-78
2022/11/06 21:26:24;;;;;;;5.13;3.00;;;;;10.70;100221.00;;;;10447919;28;20194;-78
2022/11/06 21:31:27;;;;;;;4.73;2.50;;;;;10.60;100226.00;;;;10445995;28;20213;-78
2022/11/06 21:36:32;;;;;;;3.67;3.03;;;;;10.50;100230.00;;;;10457265;28;20273;-78
2022/11/06 21:41:34;;;;;;;4.33;2.63;;;;;10.40;100237.00;;;;10428139;28;20213;-78
2022/11/06 21:46:36;;;;;;;8.17;2.73;;;;;10.50;100253.00;;;;10430416;28;20201;-78
2022/11/06 21:51:45;;;;;;;5.43;3.00;;;;;10.60;100251.00;;;;10459326;28;20208;-78
2022/11/06 21:56:49;;;;;;;6.93;2.90;;;;;10.70;100261.00;;;;10475902;28;20194;-78
2022/11/06 22:01:51;;;;;;;4.53;3.00;;;;;10.60;100256.00;;;;10425908;28;20182;-78
2022/11/06 22:06:53;;;;;;;9.10;3.40;;;;;10.50;100251.00;;;;10458439;28;20217;-78
2022/11/06 22:11:57;;;;;;;6.00;2.87;;;;;10.50;100251.00;;;;10426676;28;20214;-78
2022/11/06 22:16:59;;;;;;;6.70;2.70;;;;;10.50;100249.00;;;;10458967;28;20754;-78
2022/11/06 22:22:03;;;;;;;5.10;2.97;;;;;10.50;100240.00;;;;10458567;28;20189;-78
2022/11/06 22:27:05;;;;;;;4.93;2.53;;;;;10.50;100249.00;;;;10441989;28;20190;-78
2022/11/06 22:32:07;;;;;;;4.47;2.77;;;;;10.50;100264.00;;;;10442854;28;20193;-78
2022/11/06 22:37:09;;;;;;;4.47;2.70;;;;;10.50;100252.00;;;;10482541;28;20194;-78
2022/11/06 22:42:11;;;;;;;5.20;2.53;;;;;10.50;100259.00;;;;10466614;28;20212;-78
2022/11/06 22:47:13;;;;;;;4.43;2.60;;;;;10.50;100268.00;;;;10465911;28;20319;-78
2022/11/06 22:52:14;;;;;;;5.33;2.10;;;;;10.40;100281.00;;;;10465785;28;20197;-79
2022/11/06 22:57:16;;;;;;;5.10;2.17;;;;;10.50;100276.00;;;;10424602;28;20226;-78
2022/11/06 23:02:18;;;;;;;3.40;2.40;;;;;10.60;100267.00;;;;10420749;28;20213;-78
2022/11/06 23:07:20;;;;;;;4.93;2.23;;;;;10.60;100288.00;;;;10448447;28;20226;-79
2022/11/06 23:12:22;;;;;;;6.83;2.40;;;;;10.60;100285.00;;;;10448472;28;20198;-78
2022/11/06 23:17:24;;;;;;;4.70;2.30;;;;;10.70;100285.00;;;;10438294;28;20269;-78
2022/11/06 23:22:35;;;;;;;5.80;2.33;;;;;10.60;100283.00;;;;10422758;28;20249;-78
2022/11/06 23:27:37;;;;;;;5.87;2.20;;;;;10.50;100285.00;;;;10421531;28;20194;-78
2022/11/06 23:32:40;;;;;;;7.57;2.23;;;;;10.50;100288.00;;;;10458606;28;20248;-78
2022/11/06 23:37:43;;;;;;;7.13;2.10;;;;;10.50;100287.00;;;;10442631;28;20655;-78
2022/11/06 23:42:49;;;;;;;8.53;2.63;;;;;10.50;100281.00;;;;10429532;28;20202;-78
2022/11/06 23:47:51;;;;;;;4.03;2.07;;;;;10.50;100284.00;;;;10462212;28;20194;-78
2022/11/06 23:52:53;;;;;;;5.30;2.30;;;;;10.50;100287.00;;;;10479504;28;20209;-78
2022/11/06 23:57:55;;;;;;;6.93;2.67;;;;;10.50;100285.00;;;;10446926;28;20209;-79
